Flight Track Log - Related Links

Times and Time Zones

All times are in EDT time to prevent confusion due to time zone crossing. See the RPA3284 flight status page for this flight to view local times or setup timezone preferences in your user account.

Time Position Orientation Groundspeed Altitude Reporting Facility
EDT Latitude Longitude Course Direction KTS MPH feet Rate Location/Type
Sun 02:48:00 PM 33.1956 -79.9404 16° North  Level FlightAware Approximate
Sun 02:48:27 PM 32.9558 -79.9911 14° North 277 319 6,300  Level Jacksonville Center
Sun 02:49:00 PM 33.3014 -79.9159 23° Northeast  Level FlightAware Approximate
Sun 02:49:27 PM 33.0347 -79.9711 12° North 303 349 9,200  Level Jacksonville Center
Sun 02:50:00 PM 33.4035 -79.8760 North  Level FlightAware Approximate
Sun 02:50:27 PM 33.1239 -79.9536 North 334 384 9,900  Level Jacksonville Center
Sun 02:51:00 PM 33.5097 -79.8529 11° North  Level FlightAware Approximate
Sun 02:51:27 PM 33.2217 -79.9328 10° North 339 390 9,900  Level Jacksonville Center
Sun 02:52:00 PM 33.6157 -79.8284 11° North  Level FlightAware Approximate
Sun 02:52:27 PM 33.3192 -79.9122 10° North 351 404 10,400  Level Jacksonville Center
Sun 02:53:00 PM 33.7168 -79.7900 14° North  Level FlightAware Approximate
Sun 02:54:27 PM 33.5203 -79.8606 12° North 361 415 14,900  Level Jacksonville Center
Sun 02:55:27 PM 33.6261 -79.8294 14° North 373 429 14,900  Level Jacksonville Center
Sun 02:56:27 PM 33.7342 -79.8158 North 384 442 14,900  Level Jacksonville Center
Sun 02:57:27 PM 33.8317 -79.8725 334° Northwest 369 425 14,900  Level Jacksonville Center
Sun 02:58:27 PM 33.9286 -79.9217 337° Northwest 369 425 14,900  Level Jacksonville Center
Sun 02:59:27 PM 34.0217 -79.9736 335° Northwest 369 425 14,900  Level Jacksonville Center
Sun 03:00:27 PM 34.1167 -80.0231 337° Northwest 374 430 14,900  Level Jacksonville Center
Sun 03:01:27 PM 34.2033 -80.0706 336° Northwest 355 409 14,900  Level Jacksonville Center
Sun 03:02:27 PM 34.2858 -80.1206 333° Northwest 336 387 14,900  Level Jacksonville Center
Sun 03:03:27 PM 34.3619 -80.1736 330° Northwest 326 375 14,900 -700 Level Jacksonville Center
Sun 03:04:27 PM 34.4342 -80.2292 328° Northwest 319 367 13,500 -1,350 Descending Jacksonville Center
Sun 03:05:27 PM 34.4403 -80.3269 274° West 266 306 12,200 -1,250 Descending Jacksonville Center
Sun 03:06:27 PM 34.4631 -80.4169 287° West 266 306 11,000 -650 Descending Jacksonville Center
Sun 03:07:27 PM 34.5450 -80.4500 342° North 265 305 10,900 -45 Descending Jacksonville Center
Sun 03:08:39 PM 34.6486 -80.4861 344° North 308 354 10,900 45 Level Atlanta Center
Sun 03:09:40 PM 34.7372 -80.5203 342° North 308 354 11,000 45 Climbing Atlanta Center
Sun 03:10:53 PM 34.8322 -80.5569 342° North 307 353 11,000  Level Atlanta Center
Sun 03:11:42 PM 34.8978 -80.5894 338° Northwest 305 351 11,000  Level Atlanta Center
Sun 03:12:49 PM 34.9628 -80.6706 314° West 293 337 11,000 -516 Level Atlanta Center
Sun 03:13:50 PM 35.0208 -80.7417 315° West 291 335 9,900 -984 Descending Atlanta Center
Sun 03:14:51 PM 35.0986 -80.7589 350° North 300 345 9,000 -541 Descending Atlanta Center
Sun 03:15:52 PM 35.1714 -80.7536 North 254 292 8,800 -828 Descending Atlanta Center
Sun 03:16:47 PM 35.2381 -80.7458 North 252 290 7,400 -1,138 Descending Atlanta Center
Sun 03:17:48 PM 35.2889 -80.6928 40° Northeast 251 289 6,600 -1,082 Descending Atlanta Center
Sun 03:18:49 PM 35.3414 -80.7058 349° North 200 230 5,200 -1,345 Descending Atlanta Center
Sun 03:19:44 PM 35.3489 -80.7567 280° West 181 208 4,000 -931 Descending Atlanta Center
Sun 03:20:45 PM 35.3147 -80.8039 228° Southwest 175 201 3,400 -590 Descending Atlanta Center

Login

Don't have an account? Register now (free) for customized features, flight alerts, and more!